KDYL

Doylestown Airport

Doylestown, Pennsylvania, USA
METAR KDYL 192254Z AUTO 00000KT 10SM OVC026 20/18 A3004 RMK AO2 SLP167 T02000178
Observed Flight Rules
Aug-19 @ 22:54 UTC (15 minutes ago) Marginal Visual Flight Rules
Visibility Clouds
10 miles
  • Overcast at 2,600' AGL
Temperatures Readings
Current 20°C / 68°F
Dewpoint 18°C / 64°F
Humidity 88%
Altimeter 30.04" Hg
Pressure 1016.7 hPa
Elevation 117
METAR KDYL 192254Z AUTO 00000KT 10SM OVC026 20/18 A3004 RMK AO2 SLP167 T02000178
Observed Flight Rules
Aug-19 @ 22:54 UTC
(15 minutes ago)
MVFR
Clouds
  • Overcast at 2,600' AGL
Temperature Dewpoint
20°C / 68°F 18°C / 64°F
Humidity Altimeter Pressure
88% 30.04" Hg 1016.7 hPa